Time;durP1;ratioP1;P1;durP2;ratioP2;P2;SDS_P1;SDS_P2;PMS_P1;PMS_P2;Temp;Humidity;BMP_temperature;BMP_pressure;BME280_temperature;BME280_humidity;BME280_pressure;Samples;Min_cycle;Max_cycle;Signal;HPM_P1;HPM_P2
2022/10/17 00:01:08;;;;;;;16.17;2.35;;;;;;;10.84;100.00;98513.50;5035632;28;20453;-94
2022/10/17 00:03:37;;;;;;;18.75;2.55;;;;;;;10.82;100.00;98497.00;5037390;28;20104;-93
2022/10/17 00:06:13;;;;;;;14.02;2.00;;;;;;;10.89;100.00;98500.50;5024381;28;20491;-94
2022/10/17 00:08:43;;;;;;;20.48;2.67;;;;;;;10.87;100.00;98499.06;5039874;28;20045;-93
2022/10/17 00:11:21;;;;;;;19.98;3.15;;;;;;;10.84;100.00;98502.09;5057124;28;20027;-94
2022/10/17 00:13:54;;;;;;;19.75;3.05;;;;;;;10.82;100.00;98512.03;5031645;28;20032;-94
2022/10/17 00:16:33;;;;;;;15.65;2.72;;;;;;;10.75;100.00;98509.38;5018915;28;20032;-92
2022/10/17 00:19:01;;;;;;;19.88;2.60;;;;;;;10.75;100.00;98483.75;5021263;28;20541;-94
2022/10/17 00:21:30;;;;;;;12.68;2.47;;;;;;;10.73;100.00;98519.31;5021171;28;20037;-92
2022/10/17 00:24:01;;;;;;;16.35;2.60;;;;;;;10.74;100.00;98520.94;5044280;28;20381;-95
2022/10/17 00:26:35;;;;;;;20.02;3.03;;;;;;;10.67;100.00;98512.97;5021323;28;20152;-94
2022/10/17 00:29:03;;;;;;;21.40;2.97;;;;;;;10.67;100.00;98531.47;5032949;28;20073;-93
2022/10/17 00:31:34;;;;;;;13.82;2.55;;;;;;;10.61;100.00;98517.19;5041582;28;20078;-93
2022/10/17 00:34:02;;;;;;;19.85;2.65;;;;;;;10.60;100.00;98536.72;5030089;28;20040;-91
2022/10/17 00:36:30;;;;;;;19.65;2.53;;;;;;;10.63;100.00;98535.50;5041460;28;20099;-92
2022/10/17 00:38:59;;;;;;;18.42;3.20;;;;;;;10.66;100.00;98545.69;5054278;28;20033;-94
2022/10/17 00:41:31;;;;;;;21.58;2.83;;;;;;;10.64;100.00;98537.13;5037401;28;20028;-93
2022/10/17 00:44:04;;;;;;;12.55;1.58;;;;;;;10.60;100.00;98535.88;5052711;28;20368;-93
2022/10/17 00:46:37;;;;;;;21.95;2.50;;;;;;;10.61;100.00;98558.63;5046175;28;20036;-93
2022/10/17 00:49:11;;;;;;;11.55;1.70;;;;;;;10.56;100.00;98551.28;5060893;28;20152;-94
2022/10/17 00:51:48;;;;;;;19.75;1.98;;;;;;;10.54;100.00;98571.81;5038300;28;20127;-92
2022/10/17 00:54:23;;;;;;;17.10;2.53;;;;;;;10.61;100.00;98561.28;5037261;28;20029;-93
2022/10/17 00:56:53;;;;;;;12.87;2.40;;;;;;;10.61;100.00;98561.28;5037510;28;20033;-94
2022/10/17 00:59:26;;;;;;;12.60;1.45;;;;;;;10.53;100.00;98583.38;5026139;28;20446;-94
2022/10/17 01:02:15;;;;;;;15.48;2.15;;;;;;;10.60;100.00;98588.72;5038440;28;20036;-93
2022/10/17 01:04:48;;;;;;;16.00;2.30;;;;;;;10.61;100.00;98580.59;5053069;28;20041;-89
2022/10/17 01:07:19;;;;;;;16.50;2.60;;;;;;;10.63;100.00;98591.81;5036221;28;20036;-85
2022/10/17 01:09:50;;;;;;;10.20;1.75;;;;;;;10.66;100.00;98593.25;5037488;28;20481;-94
2022/10/17 01:12:45;;;;;;;11.15;2.40;;;;;;;10.68;100.00;98599.16;5056680;28;20028;-93
2022/10/17 01:15:34;;;;;;;13.35;1.77;;;;;;;10.75;100.00;98600.00;5040324;28;20372;-94
2022/10/17 01:18:13;;;;;;;17.30;2.70;;;;;;;10.72;100.00;98610.97;5038771;28;20040;-93
2022/10/17 01:20:53;;;;;;;19.48;2.55;;;;;;;10.72;100.00;98626.81;5021306;28;20064;-94
2022/10/17 01:23:29;;;;;;;14.32;1.98;;;;;;;10.76;100.00;98627.28;5024736;28;20047;-94
2022/10/17 01:25:57;;;;;;;;;;;;;;;10.66;100.00;98617.00;5047967;28;20024;-93
2022/10/17 01:28:54;;;;;;;15.55;2.00;;;;;;;10.73;100.00;98622.38;5039025;28;20333;-93
2022/10/17 01:31:49;;;;;;;13.40;2.20;;;;;;;10.74;100.00;98608.13;5042483;28;20484;-93
2022/10/17 01:35:00;;;;;;;15.88;2.22;;;;;;;10.78;100.00;98623.41;5053340;28;20032;-90
2022/10/17 01:37:47;;;;;;;12.82;2.72;;;;;;;10.78;100.00;98606.75;5008068;28;20036;-93
2022/10/17 01:40:24;;;;;;;16.88;2.95;;;;;;;10.82;100.00;98600.06;5024902;28;20039;-94
2022/10/17 01:43:17;;;;;;;20.58;2.83;;;;;;;10.78;100.00;98588.25;5024978;28;20507;-94
2022/10/17 01:45:52;;;;;;;17.33;2.58;;;;;;;10.75;100.00;98591.28;5024237;28;20063;-94
2022/10/17 01:48:25;;;;;;;13.93;2.30;;;;;;;10.71;100.00;98590.84;5027047;28;20066;-94
2022/10/17 01:51:14;;;;;;;15.95;3.78;;;;;;;10.67;100.00;98589.59;5064302;28;20035;-93
2022/10/17 01:53:58;;;;;;;20.40;3.53;;;;;;;10.67;100.00;98586.97;5041185;28;20060;-93
2022/10/17 01:56:29;;;;;;;17.67;2.35;;;;;;;10.64;100.00;98582.84;5033281;28;20037;-93
2022/10/17 01:59:08;;;;;;;10.57;2.15;;;;;;;10.62;100.00;98594.63;5039352;28;20040;-92
2022/10/17 02:01:38;;;;;;;15.15;2.05;;;;;;;10.57;100.00;98575.88;5054589;28;20032;-93
2022/10/17 02:04:10;;;;;;;21.05;2.15;;;;;;;10.62;100.00;98590.16;5057495;28;20047;-93
2022/10/17 02:06:38;;;;;;;14.13;2.03;;;;;;;10.59;100.00;98590.53;5022638;28;20076;-94
2022/10/17 02:09:17;;;;;;;14.30;2.38;;;;;;;10.59;100.00;98589.72;5016232;28;20038;-94
2022/10/17 02:12:00;;;;;;;17.45;2.55;;;;;;;10.61;100.00;98587.69;5055884;28;20064;-94
2022/10/17 02:14:49;;;;;;;10.52;1.83;;;;;;;10.62;100.00;98574.28;5002570;28;20119;-94
2022/10/17 02:17:35;;;;;;;11.02;2.40;;;;;;;10.62;100.00;98579.59;5025253;28;20033;-94
2022/10/17 02:20:30;;;;;;;18.05;3.10;;;;;;;10.61;100.00;98577.13;5002381;28;20039;-95
2022/10/17 02:23:24;;;;;;;14.80;2.13;;;;;;;10.61;100.00;98585.06;5023332;28;20108;-94
2022/10/17 02:26:05;;;;;;;14.50;2.17;;;;;;;10.60;100.00;98597.47;5025420;28;20123;-93
2022/10/17 02:28:41;;;;;;;18.20;2.38;;;;;;;10.61;100.00;98611.47;5022985;28;20084;-93
2022/10/17 02:31:24;;;;;;;11.02;2.13;;;;;;;10.59;100.00;98626.72;5006016;28;20427;-94
2022/10/17 02:34:03;;;;;;;9.90;1.77;;;;;;;10.67;100.00;98627.41;5002008;28;20032;-93
2022/10/17 02:36:48;;;;;;;18.92;2.10;;;;;;;10.66;100.00;98622.31;5024435;28;20319;-94
2022/10/17 02:39:25;;;;;;;10.95;1.85;;;;;;;10.71;100.00;98648.97;5038168;28;20120;-93
2022/10/17 02:41:56;;;;;;;13.20;1.80;;;;;;;10.73;100.00;98654.06;5006433;28;20037;-93
2022/10/17 02:44:28;;;;;;;14.52;2.28;;;;;;;10.67;100.00;98648.53;5036078;28;20099;-93
2022/10/17 02:47:16;;;;;;;16.00;2.40;;;;;;;10.67;100.00;98639.81;4999086;28;20094;-93
2022/10/17 02:49:51;;;;;;;12.77;2.10;;;;;;;10.62;100.00;98636.91;5022378;28;20083;-93
2022/10/17 02:52:44;;;;;;;15.18;2.45;;;;;;;10.57;100.00;98647.22;5022790;28;20024;-93
2022/10/17 02:55:31;;;;;;;11.43;2.05;;;;;;;10.58;100.00;98651.47;5004562;28;20127;-92
2022/10/17 02:58:25;;;;;;;18.05;2.40;;;;;;;10.55;100.00;98631.56;5041392;28;20033;-94
2022/10/17 03:00:55;;;;;;;14.07;2.45;;;;;;;10.52;100.00;98645.97;5041875;28;20515;-93
2022/10/17 03:03:27;;;;;;;14.10;2.05;;;;;;;10.53;100.00;98660.81;5017442;28;20033;-94
2022/10/17 03:06:01;;;;;;;15.73;1.80;;;;;;;10.49;100.00;98669.28;4992117;28;20037;-92
2022/10/17 03:08:32;;;;;;;8.23;1.77;;;;;;;10.45;100.00;98665.38;5023412;28;20385;-95
2022/10/17 03:11:01;;;;;;;13.15;2.00;;;;;;;10.42;100.00;98677.13;5036432;28;20063;-92
2022/10/17 03:13:30;;;;;;;11.55;1.58;;;;;;;10.39;100.00;98683.59;5066824;28;20049;-93
2022/10/17 03:16:02;;;;;;;15.75;2.15;;;;;;;10.36;100.00;98683.16;5066689;28;20131;-93
2022/10/17 03:18:34;;;;;;;13.60;2.60;;;;;;;10.34;100.00;98685.97;5050502;28;20115;-93
2022/10/17 03:21:03;;;;;;;15.73;1.70;;;;;;;10.31;100.00;98678.44;5024683;28;20087;-93
2022/10/17 03:23:31;;;;;;;8.57;1.80;;;;;;;10.28;100.00;98698.13;5053848;28;20098;-93
2022/10/17 03:26:06;;;;;;;10.05;1.52;;;;;;;10.26;100.00;98705.38;5027821;28;20036;-93
2022/10/17 03:28:37;;;;;;;10.70;1.88;;;;;;;10.30;100.00;98711.13;5057608;28;20040;-93
2022/10/17 03:31:14;;;;;;;10.23;1.83;;;;;;;10.29;100.00;98718.22;5029589;28;20189;-93
2022/10/17 03:33:44;;;;;;;10.43;1.83;;;;;;;10.27;100.00;98729.97;5028794;28;20679;-92
2022/10/17 03:36:16;;;;;;;12.30;2.60;;;;;;;10.32;100.00;98703.03;5041627;28;20484;-94
2022/10/17 03:38:49;;;;;;;12.38;1.70;;;;;;;10.34;100.00;98725.59;5032476;28;20601;-93
2022/10/17 03:41:18;;;;;;;10.73;2.03;;;;;;;10.30;100.00;98716.41;5028436;28;20115;-93
2022/10/17 03:43:47;;;;;;;11.50;1.85;;;;;;;10.29;100.00;98720.88;5039724;28;20392;-93
2022/10/17 03:46:15;;;;;;;12.55;2.08;;;;;;;10.24;100.00;98739.06;5045523;28;20048;-92
2022/10/17 03:48:47;;;;;;;10.02;2.50;;;;;;;10.26;100.00;98733.59;5024894;28;20032;-93
2022/10/17 03:51:17;;;;;;;16.70;2.05;;;;;;;10.19;100.00;98733.56;5026241;28;20055;-93
2022/10/17 03:53:51;;;;;;;11.70;2.17;;;;;;;10.20;100.00;98753.66;5025794;28;20102;-92
2022/10/17 03:56:24;;;;;;;12.63;1.80;;;;;;;10.15;100.00;98756.84;5025036;28;20032;-93
2022/10/17 03:59:01;;;;;;;16.52;1.92;;;;;;;10.18;100.00;98782.06;5012482;28;20040;-93
2022/10/17 04:01:31;;;;;;;13.88;2.03;;;;;;;10.12;100.00;98772.22;5063004;28;20059;-93
2022/10/17 04:03:59;;;;;;;14.73;1.95;;;;;;;10.12;100.00;98773.06;5037133;28;20035;-93
2022/10/17 04:06:31;;;;;;;7.57;1.27;;;;;;;10.17;100.00;98783.06;5047660;28;20040;-93
2022/10/17 04:09:00;;;;;;;18.83;3.97;;;;;;;10.15;100.00;98770.06;5016470;28;20053;-92
2022/10/17 04:11:42;;;;;;;15.35;2.05;;;;;;;10.13;100.00;98758.03;5042612;28;20032;-93
2022/10/17 04:14:11;;;;;;;12.40;2.20;;;;;;;10.13;100.00;98803.72;5024771;28;20028;-92
2022/10/17 04:16:40;;;;;;;12.18;1.30;;;;;;;10.13;99.55;98811.66;5039898;28;20105;-91
2022/10/17 04:19:15;;;;;;;13.00;1.60;;;;;;;10.15;99.43;98825.50;5022412;28;20020;-93
2022/10/17 04:21:47;;;;;;;14.80;2.72;;;;;;;10.19;99.20;98844.44;5041646;28;20049;-94
2022/10/17 04:24:15;;;;;;;10.23;1.98;;;;;;;10.18;99.23;98855.97;5039336;28;20033;-93
2022/10/17 04:26:49;;;;;;;12.75;2.30;;;;;;;10.21;99.69;98858.25;5025551;28;20048;-94
2022/10/17 04:29:19;;;;;;;15.73;2.03;;;;;;;10.16;99.78;98850.09;5029031;28;20115;-94
2022/10/17 04:31:51;;;;;;;14.32;2.17;;;;;;;10.10;100.00;98853.41;5020097;28;20055;-92
2022/10/17 04:34:31;;;;;;;9.23;2.08;;;;;;;10.07;100.00;98851.16;5027832;28;20139;-92
2022/10/17 04:36:59;;;;;;;14.48;2.28;;;;;;;10.03;100.00;98861.25;5038750;28;20043;-92
2022/10/17 04:39:27;;;;;;;12.45;1.60;;;;;;;10.01;100.00;98858.81;5028171;28;20488;-93
2022/10/17 04:41:55;;;;;;;14.75;2.08;;;;;;;10.04;100.00;98886.66;5045342;28;20040;-94
2022/10/17 04:44:23;;;;;;;11.95;2.13;;;;;;;10.00;100.00;98878.25;5020474;28;20054;-93
2022/10/17 04:46:53;;;;;;;10.13;1.15;;;;;;;9.98;100.00;98901.41;5034119;28;20069;-93
2022/10/17 04:49:22;;;;;;;15.60;2.13;;;;;;;9.97;100.00;98915.56;5031608;28;20044;-93
2022/10/17 04:51:54;;;;;;;11.45;1.90;;;;;;;9.95;100.00;98904.41;5017578;28;20060;-92
2022/10/17 04:54:31;;;;;;;12.63;1.90;;;;;;;10.01;100.00;98918.69;5020946;28;20029;-93
2022/10/17 04:57:07;;;;;;;16.83;3.28;;;;;;;10.08;100.00;98930.16;5040338;28;20388;-94
2022/10/17 04:59:35;;;;;;;12.40;2.55;;;;;;;10.11;100.00;98923.72;5028923;28;20028;-93
2022/10/17 05:02:16;;;;;;;14.35;1.80;;;;;;;10.14;100.00;98947.13;5063522;28;20412;-92
2022/10/17 05:04:45;;;;;;;9.32;1.60;;;;;;;10.10;100.00;98938.72;5024572;28;20036;-91
2022/10/17 05:07:14;;;;;;;13.52;2.08;;;;;;;10.10;100.00;98945.81;5027368;28;20127;-92
2022/10/17 05:09:47;;;;;;;13.65;2.03;;;;;;;10.13;100.00;98950.78;5032874;28;20512;-92
2022/10/17 05:12:20;;;;;;;11.63;1.83;;;;;;;10.09;100.00;98950.31;5047180;28;20039;-93
2022/10/17 05:14:50;;;;;;;9.20;1.73;;;;;;;10.10;99.67;98965.13;5040473;28;20481;-93
2022/10/17 05:17:20;;;;;;;9.10;1.63;;;;;;;10.14;99.21;98977.00;5024226;28;20030;-93
2022/10/17 05:19:50;;;;;;;17.25;2.10;;;;;;;10.10;99.57;98986.25;5024369;28;20051;-92
2022/10/17 05:22:19;;;;;;;9.88;1.63;;;;;;;10.08;99.83;98988.25;5033110;28;20112;-93
2022/10/17 05:24:48;;;;;;;11.82;2.40;;;;;;;10.04;99.95;99000.16;5015112;28;20362;-93
2022/10/17 05:27:16;;;;;;;10.93;1.80;;;;;;;10.01;99.71;99004.00;5017148;28;20159;-92
2022/10/17 05:29:45;;;;;;;15.43;2.53;;;;;;;10.05;99.90;99015.81;5036135;28;20037;-93
2022/10/17 05:32:19;;;;;;;12.45;1.73;;;;;;;10.12;99.87;99020.41;5073561;28;20485;-92
2022/10/17 05:34:50;;;;;;;15.82;1.92;;;;;;;10.09;99.87;99015.47;5037634;28;20036;-93
2022/10/17 05:37:20;;;;;;;12.07;1.80;;;;;;;10.13;99.61;99033.41;5059725;28;20032;-93
2022/10/17 05:39:52;;;;;;;17.92;2.17;;;;;;;10.16;99.70;99040.19;5036578;28;20029;-94
2022/10/17 05:42:20;;;;;;;12.73;1.90;;;;;;;10.18;99.94;99048.72;5021134;28;20043;-94
2022/10/17 05:44:49;;;;;;;14.05;2.03;;;;;;;10.17;99.83;99058.50;5019941;28;20035;-92
2022/10/17 05:47:19;;;;;;;9.95;1.40;;;;;;;10.21;99.75;99072.16;5025787;28;20044;-93
2022/10/17 05:49:46;;;;;;;11.73;1.70;;;;;;;10.21;99.84;99068.69;5019081;28;20028;-94
2022/10/17 05:52:14;;;;;;;11.48;1.65;;;;;;;10.23;99.75;99069.31;5051207;28;20039;-93
2022/10/17 05:55:00;;;;;;;14.77;1.65;;;;;;;10.19;99.94;99090.00;5036520;28;20039;-93
2022/10/17 05:57:33;;;;;;;12.15;1.67;;;;;;;10.20;100.00;99078.44;5058991;28;20041;-92
2022/10/17 06:00:05;;;;;;;10.60;1.98;;;;;;;10.20;100.00;99091.63;5031377;28;20048;-93
2022/10/17 06:02:46;;;;;;;14.50;1.77;;;;;;;10.22;100.00;99091.47;5045190;28;20167;-91
2022/10/17 06:05:16;;;;;;;9.98;2.00;;;;;;;10.24;99.94;99094.75;5036210;28;20064;-93
2022/10/17 06:07:46;;;;;;;12.65;2.33;;;;;;;10.24;99.99;99114.03;5048161;28;20084;-93
2022/10/17 06:10:16;;;;;;;9.45;1.55;;;;;;;10.22;100.00;99105.50;5036084;28;20041;-93
2022/10/17 06:12:45;;;;;;;14.07;1.48;;;;;;;10.23;100.00;99122.97;5035174;28;20024;-92
2022/10/17 06:15:14;;;;;;;11.85;1.45;;;;;;;10.22;99.87;99126.63;5028769;28;20036;-93
2022/10/17 06:17:46;;;;;;;10.00;1.25;;;;;;;10.17;99.54;99135.06;5036043;28;20033;-92
2022/10/17 06:20:14;;;;;;;14.43;1.90;;;;;;;10.22;99.73;99146.91;5032832;28;20044;-93
2022/10/17 06:22:42;;;;;;;10.07;1.40;;;;;;;10.21;99.93;99146.09;5028198;28;20090;-91
2022/10/17 06:25:15;;;;;;;12.90;1.75;;;;;;;10.15;99.57;99146.78;5023028;28;20032;-94
2022/10/17 06:27:45;;;;;;;10.10;1.17;;;;;;;10.19;99.36;99163.94;5035378;28;20075;-92
2022/10/17 06:30:13;;;;;;;9.68;1.25;;;;;;;10.12;99.70;99171.72;5015551;28;20047;-92
2022/10/17 06:32:43;;;;;;;10.73;1.33;;;;;;;10.08;99.64;99165.13;5026135;28;20036;-94
2022/10/17 06:35:13;;;;;;;6.22;1.40;;;;;;;10.10;99.40;99178.16;5023406;28;20032;-92
2022/10/17 06:37:44;;;;;;;9.35;1.63;;;;;;;10.05;99.96;99176.03;5038244;28;20033;-93
2022/10/17 06:40:15;;;;;;;11.25;1.58;;;;;;;10.01;99.49;99187.94;5043759;28;20093;-92
2022/10/17 06:42:46;;;;;;;11.93;1.80;;;;;;;10.04;99.53;99187.59;5029177;28;20059;-93
2022/10/17 06:45:48;;;;;;;11.23;1.08;;;;;;;9.99;99.68;99188.13;5022072;28;20034;-93
2022/10/17 06:48:30;;;;;;;10.23;1.55;;;;;;;10.03;100.00;99205.25;5018773;28;20123;-93
2022/10/17 06:51:14;;;;;;;11.23;1.15;;;;;;;10.07;100.00;99199.63;5030430;28;20037;-92
2022/10/17 06:53:48;;;;;;;9.88;1.42;;;;;;;10.03;100.00;99209.72;5018678;28;20477;-93
2022/10/17 06:56:30;;;;;;;6.57;1.05;;;;;;;10.11;100.00;99201.78;5024983;28;20503;-92
2022/10/17 06:59:07;;;;;;;12.65;1.40;;;;;;;10.10;100.00;99223.03;5042757;28;20040;-92
2022/10/17 07:01:37;;;;;;;9.52;1.35;;;;;;;10.12;100.00;99240.38;5026187;28;20036;-93
2022/10/17 07:04:05;;;;;;;9.45;1.38;;;;;;;10.06;100.00;99246.34;5051424;28;20033;-92
2022/10/17 07:06:35;;;;;;;8.77;1.52;;;;;;;10.05;100.00;99242.03;5053462;28;20119;-93
2022/10/17 07:09:09;;;;;;;7.53;1.10;;;;;;;10.02;100.00;99245.84;5024434;28;20121;-94
2022/10/17 07:11:39;;;;;;;12.85;2.13;;;;;;;10.05;100.00;99260.50;5053203;28;20029;-94
2022/10/17 07:14:07;;;;;;;11.13;2.35;;;;;;;9.98;100.00;99268.31;5025847;28;20020;-94
2022/10/17 07:16:35;;;;;;;7.25;1.00;;;;;;;9.96;100.00;99277.38;5022417;28;20032;-93
2022/10/17 07:19:17;;;;;;;13.52;1.35;;;;;;;9.93;100.00;99278.53;5026731;28;20238;-93
2022/10/17 07:21:46;;;;;;;8.07;1.02;;;;;;;9.92;100.00;99275.06;5042419;28;20040;-92
2022/10/17 07:24:14;;;;;;;8.48;1.58;;;;;;;9.94;100.00;99293.38;5037080;28;20037;-92
2022/10/17 07:26:46;;;;;;;8.80;1.38;;;;;;;9.90;100.00;99298.19;5026943;28;20079;-93
2022/10/17 07:29:14;;;;;;;9.32;1.48;;;;;;;9.95;100.00;99302.97;5027569;28;20040;-94
2022/10/17 07:32:02;;;;;;;7.93;1.00;;;;;;;9.94;100.00;99306.56;5028855;28;20036;-92
2022/10/17 07:34:32;;;;;;;16.42;2.15;;;;;;;9.99;100.00;99316.63;5030020;28;20032;-92
2022/10/17 07:37:01;;;;;;;7.95;1.25;;;;;;;9.96;100.00;99317.81;5042955;28;20047;-93
2022/10/17 07:39:30;;;;;;;12.15;1.65;;;;;;;9.91;100.00;99323.59;5066903;28;20044;-93
2022/10/17 07:41:58;;;;;;;10.75;1.77;;;;;;;9.95;100.00;99342.56;5042086;28;20067;-93
2022/10/17 07:44:28;;;;;;;9.25;1.10;;;;;;;9.93;100.00;99344.53;5042096;28;20033;-93
2022/10/17 07:46:58;;;;;;;9.25;1.10;;;;;;;9.92;100.00;99362.19;5058827;28;20028;-92
2022/10/17 07:49:29;;;;;;;8.57;1.50;;;;;;;9.90;100.00;99355.44;5043124;28;20036;-93
2022/10/17 07:51:59;;;;;;;7.55;1.40;;;;;;;9.95;100.00;99358.41;5025883;28;20123;-93
2022/10/17 07:54:29;;;;;;;11.05;1.48;;;;;;;9.99;100.00;99383.47;5041037;28;20024;-92
2022/10/17 07:56:56;;;;;;;8.43;0.95;;;;;;;9.98;100.00;99383.63;5022862;28;20488;-92
2022/10/17 07:59:25;;;;;;;12.45;0.80;;;;;;;10.06;100.00;99407.38;5058198;28;20119;-85
2022/10/17 08:01:56;;;;;;;9.05;1.70;;;;;;;10.08;100.00;99415.13;5037781;28;20085;-84
2022/10/17 08:04:27;;;;;;;13.05;1.98;;;;;;;10.11;100.00;99414.81;5017176;28;20071;-92
2022/10/17 08:06:56;;;;;;;8.32;1.55;;;;;;;10.17;100.00;99436.09;5057613;28;20359;-93
2022/10/17 08:09:26;;;;;;;7.45;0.60;;;;;;;10.23;100.00;99458.34;5054694;28;20132;-93
2022/10/17 08:11:56;;;;;;;11.52;1.35;;;;;;;10.27;100.00;99462.31;5021655;28;20115;-91
2022/10/17 08:14:25;;;;;;;7.45;1.27;;;;;;;10.33;100.00;99471.41;5040085;28;20033;-94
2022/10/17 08:16:54;;;;;;;7.43;1.10;;;;;;;10.34;100.00;99474.84;5037054;28;20388;-93
2022/10/17 08:19:23;;;;;;;7.05;1.13;;;;;;;10.36;100.00;99496.63;5021195;28;20043;-93
2022/10/17 08:21:53;;;;;;;6.03;1.00;;;;;;;10.34;100.00;99512.66;5004719;28;20045;-91
2022/10/17 08:24:20;;;;;;;8.07;1.35;;;;;;;10.37;100.00;99514.13;5004399;28;20029;-93
2022/10/17 08:26:48;;;;;;;14.23;1.40;;;;;;;10.39;100.00;99535.94;5023051;28;20064;-94
2022/10/17 08:29:17;;;;;;;10.05;1.02;;;;;;;10.40;100.00;99529.69;5027623;28;20037;-94
2022/10/17 08:31:45;;;;;;;9.52;1.70;;;;;;;10.44;100.00;99552.13;5039645;28;20032;-93
2022/10/17 08:34:15;;;;;;;7.65;1.20;;;;;;;10.47;100.00;99553.63;5021029;28;20025;-93
2022/10/17 08:36:43;;;;;;;5.47;0.63;;;;;;;10.49;100.00;99563.06;5037056;28;20044;-93
2022/10/17 08:39:11;;;;;;;10.30;1.30;;;;;;;10.53;100.00;99584.66;5004511;28;20037;-93
2022/10/17 08:42:22;;;;;;;7.32;1.05;;;;;;;10.56;100.00;99581.69;5012486;28;20036;-92
2022/10/17 08:45:16;;;;;;;9.98;1.88;;;;;;;10.62;100.00;99578.38;5049027;28;20037;-92
2022/10/17 08:47:52;;;;;;;10.23;1.20;;;;;;;10.65;100.00;99590.47;5021088;28;20045;-92
2022/10/17 08:50:35;;;;;;;;;;;;;;;10.60;100.00;99583.03;5031546;28;20044;-92
2022/10/17 08:53:18;;;;;;;9.18;1.42;;;;;;;10.73;100.00;99602.84;5053455;28;19935;-93
2022/10/17 08:55:50;;;;;;;6.90;1.23;;;;;;;10.76;100.00;99605.16;5041777;28;20048;-93
2022/10/17 08:58:22;;;;;;;9.15;1.27;;;;;;;10.80;100.00;99611.75;5051308;28;20033;-92
2022/10/17 09:01:00;;;;;;;12.30;1.92;;;;;;;10.84;100.00;99633.41;5023608;28;20041;-91
2022/10/17 09:04:06;;;;;;;7.85;1.33;;;;;;;10.81;100.00;99634.56;5003027;28;20030;-93
2022/10/17 09:06:43;;;;;;;8.18;1.23;;;;;;;10.80;100.00;99646.09;4971918;28;20038;-92
2022/10/17 09:09:23;;;;;;;8.43;1.63;;;;;;;10.81;100.00;99653.06;5025441;28;20135;-91
2022/10/17 09:12:21;;;;;;;9.55;1.42;;;;;;;10.77;100.00;99655.22;5016293;28;20037;-92
2022/10/17 09:15:26;;;;;;;7.70;1.40;;;;;;;10.79;100.00;99668.25;5019276;28;20526;-93
2022/10/17 09:18:01;;;;;;;9.02;1.38;;;;;;;10.82;100.00;99664.44;5034223;28;20040;-93
2022/10/17 09:20:36;;;;;;;7.43;1.23;;;;;;;10.84;100.00;99673.88;5011685;28;20037;-93
2022/10/17 09:23:11;;;;;;;6.32;1.05;;;;;;;10.87;100.00;99676.19;5035968;28;20397;-92
2022/10/17 09:25:47;;;;;;;8.52;1.38;;;;;;;10.91;100.00;99695.19;5000030;28;20049;-92
2022/10/17 09:28:38;;;;;;;7.95;1.30;;;;;;;10.92;100.00;99708.22;5019689;28;20043;-91
2022/10/17 09:31:22;;;;;;;8.77;1.80;;;;;;;10.95;100.00;99714.19;5018302;28;20136;-92
2022/10/17 09:33:55;;;;;;;7.90;1.30;;;;;;;10.97;100.00;99730.72;5021897;28;20124;-93
2022/10/17 09:36:35;;;;;;;7.72;1.27;;;;;;;10.98;100.00;99738.50;5025537;28;20086;-92
2022/10/17 09:39:11;;;;;;;6.22;1.13;;;;;;;10.99;100.00;99740.13;5036468;28;20033;-92
2022/10/17 09:41:47;;;;;;;7.80;1.40;;;;;;;11.08;100.00;99725.13;5035960;28;20064;-94
2022/10/17 09:44:21;;;;;;;12.00;1.73;;;;;;;11.15;100.00;99735.84;5030823;28;20531;-92
2022/10/17 09:47:00;;;;;;;8.40;1.40;;;;;;;11.22;100.00;99728.06;5032652;28;20557;-92
2022/10/17 09:49:36;;;;;;;11.18;1.17;;;;;;;11.25;99.39;99739.16;5027764;28;20048;-93
2022/10/17 09:52:10;;;;;;;;;;;;;;;11.19;98.30;99745.13;5006705;28;20045;-92
2022/10/17 09:54:52;;;;;;;7.88;1.52;;;;;;;11.32;98.50;99759.66;5016597;28;20269;-92
2022/10/17 09:57:22;;;;;;;6.57;1.30;;;;;;;11.39;98.56;99760.63;5029571;28;20033;-92
2022/10/17 10:00:04;;;;;;;7.65;1.40;;;;;;;11.44;96.65;99776.00;5014725;28;20037;-92
2022/10/17 10:02:40;;;;;;;15.65;1.52;;;;;;;11.49;97.50;99773.69;5035624;28;20036;-92
2022/10/17 10:05:20;;;;;;;12.98;1.85;;;;;;;11.62;96.90;99779.31;5018858;28;20048;-93
2022/10/17 10:08:13;;;;;;;11.77;1.52;;;;;;;11.72;95.87;99789.69;5019713;28;20124;-92
2022/10/17 10:10:44;;;;;;;6.65;1.20;;;;;;;11.77;96.39;99808.56;4991198;28;20087;-93
2022/10/17 10:13:14;;;;;;;8.75;1.33;;;;;;;11.82;95.68;99808.06;5036173;28;20469;-92
2022/10/17 10:15:50;;;;;;;10.23;1.33;;;;;;;11.87;95.53;99818.97;5019177;28;20033;-92
2022/10/17 10:18:30;;;;;;;8.10;1.38;;;;;;;11.89;94.95;99810.88;5025084;28;20044;-92
2022/10/17 10:21:06;;;;;;;8.10;1.10;;;;;;;11.96;94.00;99830.38;5023383;28;20064;-92
2022/10/17 10:23:41;;;;;;;7.53;1.30;;;;;;;11.97;92.35;99841.81;5003312;28;20051;-92
2022/10/17 10:26:24;;;;;;;9.63;1.10;;;;;;;11.97;90.70;99853.22;5017305;28;20440;-93
2022/10/17 10:29:17;;;;;;;11.60;1.10;;;;;;;12.05;91.20;99852.38;5039121;28;20056;-92
2022/10/17 10:31:45;;;;;;;9.77;1.15;;;;;;;12.11;91.21;99877.41;5006154;28;20067;-92
2022/10/17 10:34:24;;;;;;;9.07;1.15;;;;;;;12.22;90.27;99868.25;5023792;28;20033;-91
2022/10/17 10:37:03;;;;;;;8.55;1.17;;;;;;;12.28;89.88;99881.66;5016152;28;20043;-92
2022/10/17 10:39:47;;;;;;;6.78;0.98;;;;;;;12.36;90.17;99885.31;5009372;28;20419;-93
2022/10/17 10:42:28;;;;;;;8.45;0.75;;;;;;;12.42;89.58;99892.56;5022843;28;20064;-91
2022/10/17 10:45:15;;;;;;;8.07;0.82;;;;;;;12.51;88.10;99898.66;5031839;28;20048;-93
2022/10/17 10:47:55;;;;;;;6.28;1.20;;;;;;;12.63;88.24;99892.00;5039569;28;20045;-93
2022/10/17 10:50:44;;;;;;;8.55;0.98;;;;;;;12.78;86.65;99901.88;5038500;28;20045;-93
2022/10/17 10:53:33;;;;;;;5.68;0.50;;;;;;;12.85;85.47;99912.63;5029758;28;20053;-92
2022/10/17 10:56:37;;;;;;;7.95;1.00;;;;;;;12.90;84.68;99915.56;5019773;28;20396;-92
2022/10/17 10:59:08;;;;;;;8.02;1.10;;;;;;;12.93;85.72;99912.59;5007565;28;20037;-92
2022/10/17 11:01:37;;;;;;;7.28;0.90;;;;;;;12.99;85.77;99903.94;5004110;28;20052;-93
2022/10/17 11:04:28;;;;;;;6.88;0.88;;;;;;;13.09;83.73;99937.41;5050208;28;20047;-92
2022/10/17 11:07:09;;;;;;;8.02;1.55;;;;;;;13.15;83.11;99944.66;5039892;28;20035;-93
2022/10/17 11:10:09;;;;;;;5.95;0.90;;;;;;;13.21;81.91;99943.13;5041947;28;20102;-92
2022/10/17 11:12:47;;;;;;;8.65;1.20;;;;;;;13.30;82.94;99949.22;5052330;28;20547;-92
2022/10/17 11:15:54;;;;;;;5.53;0.80;;;;;;;13.41;82.42;99948.81;5028268;28;20385;-93
2022/10/17 11:18:35;;;;;;;5.32;0.80;;;;;;;13.40;81.70;99965.75;5024809;28;20045;-92
2022/10/17 11:21:23;;;;;;;5.20;1.05;;;;;;;13.33;80.01;99959.50;5030301;28;20049;-91
2022/10/17 11:23:59;;;;;;;;;;;;;;;13.17;79.45;99985.09;5041849;28;20382;-92
2022/10/17 11:26:32;;;;;;;5.10;1.10;;;;;;;13.33;81.30;99996.66;5040034;28;20665;-93
2022/10/17 11:29:05;;;;;;;7.13;1.13;;;;;;;13.35;81.36;100000.78;5022025;28;20362;-91
2022/10/17 11:31:39;;;;;;;6.45;1.02;;;;;;;13.32;79.60;99997.63;5055613;28;20048;-90
2022/10/17 11:34:18;;;;;;;6.32;0.93;;;;;;;13.32;79.91;100030.31;5021840;28;20025;-94
2022/10/17 11:36:52;;;;;;;9.48;0.85;;;;;;;13.36;80.11;100042.25;5038435;28;20048;-92
2022/10/17 11:39:39;;;;;;;6.78;1.30;;;;;;;13.44;79.42;100040.56;5022063;28;20376;-92
2022/10/17 11:42:17;;;;;;;6.15;0.88;;;;;;;13.51;79.52;100045.03;5005584;28;20481;-94
2022/10/17 11:44:51;;;;;;;5.90;1.02;;;;;;;13.52;79.74;100059.97;5029282;28;20029;-91
2022/10/17 11:47:45;;;;;;;6.30;0.88;;;;;;;13.50;79.64;100072.59;5013846;28;20025;-90
2022/10/17 11:50:21;;;;;;;12.23;1.58;;;;;;;13.49;79.98;100068.25;5041731;28;20033;-91
2022/10/17 11:53:01;;;;;;;6.75;1.00;;;;;;;13.39;79.10;100070.28;5022858;28;20473;-91
2022/10/17 11:55:31;;;;;;;5.07;0.65;;;;;;;13.35;79.86;100095.50;5033976;28;20062;-91
2022/10/17 11:58:24;;;;;;;7.05;0.90;;;;;;;13.47;79.81;100088.00;5020783;28;20100;-93
2022/10/17 12:01:03;;;;;;;7.35;0.85;;;;;;;13.68;79.32;100086.63;5026378;28;20132;-92
2022/10/17 12:03:40;;;;;;;11.05;1.73;;;;;;;13.88;79.60;100087.84;5020605;28;20045;-92